createdAt,value
2022-11-05T00:04:39.785Z,76.18
2022-11-05T00:09:42.280Z,76.04
2022-11-05T00:15:03.245Z,76.05
2022-11-05T00:20:07.494Z,76.06
2022-11-05T00:25:17.066Z,76.08
2022-11-05T00:30:24.165Z,76.18
2022-11-05T00:35:26.319Z,76.03
2022-11-05T00:40:28.511Z,75.91
2022-11-05T00:45:31.325Z,76.03
2022-11-05T00:50:34.184Z,75.98
2022-11-05T00:55:38.836Z,76.01
2022-11-05T01:00:45.745Z,75.83
2022-11-05T01:05:51.020Z,75.71
2022-11-05T01:10:57.865Z,75.38
2022-11-05T01:16:06.659Z,75.42
2022-11-05T01:21:13.383Z,75.55
2022-11-05T01:26:15.582Z,75.52
2022-11-05T01:31:17.689Z,75.51
2022-11-05T01:36:19.819Z,75.54
2022-11-05T01:41:21.988Z,75.35
2022-11-05T01:46:28.691Z,75.20
2022-11-05T01:51:31.267Z,75.34
2022-11-05T01:56:39.786Z,75.16
2022-11-05T02:01:42.293Z,75.23
2022-11-05T02:06:47.693Z,74.92
2022-11-05T02:11:51.521Z,74.93
2022-11-05T02:17:14.144Z,74.50
2022-11-05T02:22:42.934Z,74.75
2022-11-05T02:28:05.754Z,74.51
2022-11-05T02:33:11.041Z,74.80
2022-11-05T02:38:13.917Z,74.69
2022-11-05T02:43:25.311Z,74.79
2022-11-05T02:48:56.781Z,74.91
2022-11-05T02:54:06.541Z,74.89
2022-11-05T02:59:08.667Z,74.88
2022-11-05T03:04:12.334Z,75.07
2022-11-05T03:09:29.058Z,75.29
2022-11-05T03:14:53.167Z,75.31
2022-11-05T03:20:15.567Z,75.25
2022-11-05T03:25:24.365Z,74.99
2022-11-05T03:30:26.900Z,75.25
2022-11-05T03:35:36.945Z,75.08
2022-11-05T03:40:39.733Z,75.40
2022-11-05T03:45:46.752Z,75.33
2022-11-05T03:51:04.992Z,75.75
2022-11-05T03:56:13.020Z,75.38
2022-11-05T04:01:15.554Z,75.59
2022-11-05T04:06:36.144Z,75.31
2022-11-05T04:11:56.889Z,75.36
2022-11-05T04:17:09.299Z,75.45
2022-11-05T04:22:29.770Z,75.25
2022-11-05T04:27:32.036Z,75.35
2022-11-05T04:32:34.166Z,75.36
2022-11-05T04:37:36.256Z,75.34
2022-11-05T04:42:38.399Z,75.29
2022-11-05T04:47:40.529Z,75.38
2022-11-05T04:52:42.719Z,75.38
2022-11-05T04:57:49.047Z,75.56
2022-11-05T05:02:51.265Z,75.80
2022-11-05T05:07:53.364Z,75.91
2022-11-05T05:12:55.655Z,75.76
2022-11-05T05:17:57.882Z,75.89
2022-11-05T05:22:59.997Z,75.89
2022-11-05T05:28:02.829Z,75.75
2022-11-05T05:33:05.049Z,75.82
2022-11-05T05:38:10.241Z,75.62
2022-11-05T05:43:12.503Z,75.51
2022-11-05T05:48:15.070Z,75.93
2022-11-05T05:53:17.373Z,75.71
2022-11-05T05:58:19.498Z,75.75
2022-11-05T06:03:21.946Z,75.56
2022-11-05T06:08:24.029Z,75.29
2022-11-05T06:13:26.746Z,75.43
2022-11-05T06:18:29.941Z,75.35
2022-11-05T06:23:33.137Z,75.36
2022-11-05T06:28:35.372Z,75.36
2022-11-05T06:33:37.853Z,75.21
2022-11-05T06:38:39.950Z,75.12
2022-11-05T06:43:42.143Z,75.00
2022-11-05T06:48:44.468Z,75.00
2022-11-05T06:53:46.585Z,75.18
2022-11-05T06:58:48.817Z,75.13
2022-11-05T07:03:51.021Z,75.29
2022-11-05T07:08:53.275Z,75.11
2022-11-05T07:13:55.367Z,75.17
2022-11-05T07:18:57.579Z,75.14
2022-11-05T07:23:59.713Z,75.00
2022-11-05T07:29:01.871Z,74.81
2022-11-05T07:34:05.094Z,74.72
2022-11-05T07:39:07.259Z,74.78
2022-11-05T07:44:09.483Z,74.74
2022-11-05T07:49:11.671Z,74.64
2022-11-05T07:54:13.787Z,74.59
2022-11-05T07:59:15.837Z,74.50
2022-11-05T08:04:17.962Z,74.62
2022-11-05T08:09:20.784Z,74.45
2022-11-05T08:14:22.993Z,74.67
2022-11-05T08:19:25.067Z,74.85
2022-11-05T08:24:27.151Z,74.83
2022-11-05T08:29:29.266Z,74.99
2022-11-05T08:34:31.421Z,74.63
2022-11-05T08:39:33.584Z,74.72
2022-11-05T08:44:35.662Z,74.79
2022-11-05T08:49:37.902Z,74.75
2022-11-05T08:54:40.076Z,74.84
2022-11-05T08:59:42.141Z,74.94
2022-11-05T09:04:44.889Z,74.98
2022-11-05T09:09:46.954Z,74.65
2022-11-05T09:14:49.234Z,74.89
2022-11-05T09:19:51.451Z,74.89
2022-11-05T09:24:53.584Z,74.94
2022-11-05T09:29:55.912Z,74.75
2022-11-05T09:35:00.512Z,74.90
2022-11-05T09:40:02.623Z,75.04
2022-11-05T09:45:11.220Z,75.30
2022-11-05T09:50:17.059Z,75.03
2022-11-05T09:55:28.450Z,75.02
2022-11-05T10:00:31.790Z,75.17
2022-11-05T10:05:35.058Z,75.06
2022-11-05T10:10:41.911Z,75.14
2022-11-05T10:15:59.643Z,75.01
2022-11-05T10:21:02.134Z,74.91
2022-11-05T10:26:09.364Z,74.99
2022-11-05T10:31:17.778Z,75.05
2022-11-05T10:36:23.978Z,75.16
2022-11-05T10:41:44.867Z,75.03
2022-11-05T10:47:07.052Z,75.15
2022-11-05T10:52:33.181Z,74.97
2022-11-05T10:57:39.551Z,74.89
2022-11-05T11:02:43.300Z,74.78
2022-11-05T11:08:00.550Z,74.78
2022-11-05T11:13:03.193Z,74.87
2022-11-05T11:18:40.282Z,74.75
2022-11-05T11:23:44.881Z,74.76
2022-11-05T11:28:49.330Z,74.55
2022-11-05T11:33:57.819Z,74.61
2022-11-05T11:39:02.726Z,74.65
2022-11-05T11:44:16.744Z,74.83
2022-11-05T11:49:34.338Z,75.06
2022-11-05T11:54:36.661Z,74.99
2022-11-05T12:00:07.159Z,75.01
2022-11-05T12:05:22.784Z,75.02
2022-11-05T12:10:46.386Z,75.25
2022-11-05T12:15:58.205Z,75.11
2022-11-05T12:21:34.823Z,75.19
2022-11-05T12:26:58.642Z,75.09
2022-11-05T12:32:31.451Z,75.18
2022-11-05T12:38:19.971Z,75.10
2022-11-05T12:43:25.131Z,74.98
2022-11-05T12:49:03.021Z,74.88
2022-11-05T12:54:20.905Z,74.61
2022-11-05T12:59:40.578Z,75.16
2022-11-05T13:04:58.592Z,75.02
2022-11-05T13:10:09.658Z,74.76
2022-11-05T13:15:17.681Z,74.82
2022-11-05T13:20:22.576Z,74.77
2022-11-05T13:25:28.542Z,74.76
2022-11-05T13:30:34.044Z,74.81
2022-11-05T13:35:45.717Z,74.57
2022-11-05T13:41:05.041Z,74.62
2022-11-05T13:46:10.109Z,74.56
2022-11-05T13:51:38.827Z,74.47
2022-11-05T13:56:50.825Z,74.36
2022-11-05T14:02:18.176Z,74.56
2022-11-05T14:07:37.163Z,74.39
2022-11-05T14:12:40.352Z,73.96
2022-11-05T14:17:56.264Z,74.10
2022-11-05T14:23:23.434Z,74.18
2022-11-05T14:28:34.917Z,74.22
2022-11-05T14:33:40.288Z,73.93
2022-11-05T14:38:50.983Z,73.82
2022-11-05T14:44:06.406Z,73.79
2022-11-05T14:49:22.966Z,73.94
2022-11-05T14:54:29.889Z,73.94
2022-11-05T14:59:34.638Z,73.87
2022-11-05T15:04:40.869Z,73.87
2022-11-05T15:09:59.743Z,73.84
2022-11-05T15:15:21.219Z,73.76
2022-11-05T15:20:39.957Z,73.36
2022-11-05T15:26:00.404Z,73.69
2022-11-05T15:31:14.752Z,73.64
2022-11-05T15:36:16.936Z,73.61
2022-11-05T15:41:22.689Z,73.56
2022-11-05T15:46:28.404Z,73.71
2022-11-05T15:51:30.844Z,73.69
2022-11-05T15:56:39.231Z,73.73
2022-11-05T16:02:14.257Z,73.83
2022-11-05T16:07:17.097Z,73.99
2022-11-05T16:12:19.647Z,73.80
2022-11-05T16:17:24.152Z,73.91
2022-11-05T16:22:26.371Z,73.83
2022-11-05T16:27:28.578Z,73.80
2022-11-05T16:32:35.076Z,73.74
2022-11-05T16:37:40.167Z,73.44
2022-11-05T16:42:43.107Z,73.43
2022-11-05T16:47:46.116Z,73.45
2022-11-05T16:52:48.603Z,73.51
2022-11-05T16:57:55.095Z,73.44
2022-11-05T17:02:57.584Z,73.58
2022-11-05T17:08:01.427Z,73.53
2022-11-05T17:13:04.053Z,73.40
2022-11-05T17:18:06.524Z,73.71
2022-11-05T17:23:11.464Z,73.67
2022-11-05T17:28:14.814Z,73.55
2022-11-05T17:33:18.155Z,73.57
2022-11-05T17:38:24.775Z,73.55
2022-11-05T17:43:27.094Z,73.60
2022-11-05T17:48:29.887Z,73.70
2022-11-05T17:53:32.209Z,73.88
2022-11-05T17:58:34.939Z,73.68
2022-11-05T18:03:37.333Z,73.74
2022-11-05T18:08:39.869Z,73.86
2022-11-05T18:13:42.105Z,73.82
2022-11-05T18:18:44.272Z,73.70
2022-11-05T18:23:46.489Z,73.99
2022-11-05T18:28:48.780Z,74.02
2022-11-05T18:33:51.641Z,73.94
2022-11-05T18:38:54.386Z,74.28
2022-11-05T18:44:01.890Z,74.06
2022-11-05T18:49:04.281Z,74.20
2022-11-05T18:54:07.530Z,74.45
2022-11-05T18:59:35.249Z,74.21
2022-11-05T19:04:32.254Z,74.17
2022-11-05T19:09:35.652Z,74.59
2022-11-05T19:14:38.137Z,74.81
2022-11-05T19:19:40.442Z,74.76
2022-11-05T19:24:42.680Z,74.68
2022-11-05T19:29:44.993Z,74.71
2022-11-05T19:34:47.729Z,75.03
2022-11-05T19:39:49.939Z,74.92
2022-11-05T19:44:52.257Z,74.86
2022-11-05T19:49:54.419Z,74.96
2022-11-05T19:54:56.738Z,74.91
2022-11-05T19:59:58.930Z,75.21
2022-11-05T20:05:01.324Z,75.15
2022-11-05T20:10:06.448Z,75.33
2022-11-05T20:15:08.982Z,75.73
2022-11-05T20:20:11.769Z,75.80
2022-11-05T20:25:14.208Z,75.38
2022-11-05T20:30:16.588Z,75.86
2022-11-05T20:35:18.792Z,75.81
2022-11-05T20:40:20.951Z,75.90
2022-11-05T20:45:23.129Z,76.08
2022-11-05T20:50:25.261Z,75.95
2022-11-05T20:55:27.382Z,75.88
2022-11-05T21:00:29.508Z,75.83
2022-11-05T21:05:35.477Z,75.82
2022-11-05T21:10:38.434Z,76.04
2022-11-05T21:15:49.070Z,76.08
2022-11-05T21:20:51.358Z,75.82
2022-11-05T21:25:53.575Z,76.02
2022-11-05T21:31:01.032Z,75.92
2022-11-05T21:36:09.119Z,75.73
2022-11-05T21:41:12.630Z,75.67
2022-11-05T21:46:14.835Z,75.42
2022-11-05T21:51:35.341Z,75.45
2022-11-05T21:56:56.543Z,75.19
2022-11-05T22:02:01.910Z,75.30
2022-11-05T22:07:05.330Z,75.56
2022-11-05T22:12:08.141Z,75.42
2022-11-05T22:17:11.226Z,75.58
2022-11-05T22:22:13.738Z,75.40
2022-11-05T22:27:18.078Z,75.21
2022-11-05T22:32:20.230Z,75.47
2022-11-05T22:37:22.930Z,75.13
2022-11-05T22:42:25.069Z,75.54
2022-11-05T22:47:27.264Z,75.12
2022-11-05T22:52:29.368Z,75.23
2022-11-05T22:57:31.471Z,75.68
2022-11-05T23:02:33.658Z,75.04
2022-11-05T23:07:56.315Z,74.79
2022-11-05T23:12:58.456Z,74.88
2022-11-05T23:18:18.994Z,74.90
2022-11-05T23:23:39.699Z,74.84
2022-11-05T23:28:41.856Z,74.77
2022-11-05T23:33:44.016Z,75.02
2022-11-05T23:38:46.157Z,74.73
2022-11-05T23:44:20.448Z,74.98
2022-11-05T23:49:22.572Z,75.02
2022-11-05T23:54:24.699Z,75.06
2022-11-05T23:59:26.867Z,74.87
